createdAt,value
2018-10-06T00:00:09.104Z,0
2018-10-06T00:00:49.674Z,0
2018-10-06T00:01:30.229Z,0
2018-10-06T00:02:10.793Z,0
2018-10-06T00:02:51.355Z,0
2018-10-06T00:03:31.921Z,0
2018-10-06T00:04:12.483Z,0
2018-10-06T00:04:53.052Z,0
2018-10-06T00:05:33.637Z,0
2018-10-06T00:06:14.196Z,0
2018-10-06T00:06:54.759Z,0
2018-10-06T00:07:35.325Z,0
2018-10-06T00:08:15.878Z,0
2018-10-06T00:08:56.439Z,0
2018-10-06T00:09:36.996Z,0
2018-10-06T00:10:17.549Z,0
2018-10-06T00:10:58.115Z,0
2018-10-06T00:11:38.666Z,0
2018-10-06T00:12:19.224Z,0
2018-10-06T00:12:59.796Z,0
2018-10-06T00:13:40.362Z,0
2018-10-06T00:14:20.962Z,0
2018-10-06T00:15:01.485Z,0
2018-10-06T00:15:42.045Z,0
2018-10-06T00:16:22.610Z,0
2018-10-06T00:17:03.182Z,0
2018-10-06T00:17:43.744Z,0
2018-10-06T00:18:24.313Z,0
2018-10-06T00:19:07.528Z,0
2018-10-06T00:19:48.088Z,0
2018-10-06T00:20:28.641Z,0
2018-10-06T00:21:09.211Z,0
2018-10-06T00:21:49.791Z,0
2018-10-06T00:22:30.349Z,0
2018-10-06T00:23:10.908Z,0
2018-10-06T00:23:51.507Z,0
2018-10-06T00:24:32.064Z,0
2018-10-06T00:25:12.633Z,0
2018-10-06T00:25:53.193Z,0
2018-10-06T00:26:33.755Z,0
2018-10-06T00:27:14.311Z,0
2018-10-06T00:27:54.879Z,0
2018-10-06T00:28:35.445Z,0
2018-10-06T00:29:16.003Z,0
2018-10-06T00:29:56.561Z,0
2018-10-06T00:30:37.123Z,0
2018-10-06T00:31:17.704Z,0
2018-10-06T00:31:58.261Z,0
2018-10-06T00:32:38.827Z,0
2018-10-06T00:33:19.383Z,0
2018-10-06T00:33:59.950Z,0
2018-10-06T00:34:40.514Z,0
2018-10-06T00:35:21.081Z,0
2018-10-06T00:36:01.640Z,0
2018-10-06T00:36:42.196Z,0
2018-10-06T00:37:22.758Z,0
2018-10-06T00:38:03.322Z,0
2018-10-06T00:38:43.889Z,0
2018-10-06T00:39:24.448Z,0
2018-10-06T00:40:05.011Z,0
2018-10-06T00:40:45.626Z,0
2018-10-06T00:41:26.176Z,0
2018-10-06T00:42:06.730Z,0
2018-10-06T00:42:47.305Z,0
2018-10-06T00:43:27.861Z,0
2018-10-06T00:44:08.439Z,0
2018-10-06T00:44:48.999Z,0
2018-10-06T00:45:29.558Z,0
2018-10-06T00:46:10.120Z,0
2018-10-06T00:46:50.684Z,0
2018-10-06T00:47:31.241Z,0
2018-10-06T00:48:11.806Z,0
2018-10-06T00:48:52.364Z,0
2018-10-06T00:49:32.920Z,0
2018-10-06T00:50:13.482Z,0
2018-10-06T00:50:54.046Z,0
2018-10-06T00:51:34.613Z,0
2018-10-06T00:52:15.154Z,0
2018-10-06T00:52:55.717Z,0
2018-10-06T00:53:36.284Z,0
2018-10-06T00:54:16.848Z,0
2018-10-06T00:54:57.407Z,0
2018-10-06T00:55:37.966Z,0
2018-10-06T00:56:18.531Z,0
2018-10-06T00:56:59.103Z,0
2018-10-06T00:57:39.656Z,0
2018-10-06T00:58:20.220Z,0
2018-10-06T00:59:00.791Z,0
2018-10-06T00:59:41.353Z,0
2018-10-06T01:00:21.916Z,0
2018-10-06T01:01:02.475Z,0
2018-10-06T01:01:43.033Z,0
2018-10-06T01:02:23.593Z,0
2018-10-06T01:03:04.180Z,0
2018-10-06T01:03:44.733Z,0
2018-10-06T01:04:25.315Z,0
2018-10-06T01:05:05.877Z,0
2018-10-06T01:05:46.446Z,0
2018-10-06T01:06:27.006Z,0
2018-10-06T01:07:07.580Z,0
2018-10-06T01:07:48.152Z,0
2018-10-06T01:08:28.709Z,0
2018-10-06T01:09:09.303Z,0
2018-10-06T01:09:49.897Z,0
2018-10-06T01:10:30.457Z,0
2018-10-06T01:11:11.021Z,0
2018-10-06T01:11:51.587Z,0
2018-10-06T01:12:32.154Z,0
2018-10-06T01:13:12.739Z,0
2018-10-06T01:13:53.310Z,0
2018-10-06T01:14:33.874Z,0
2018-10-06T01:15:14.441Z,0
2018-10-06T01:15:55.047Z,0
2018-10-06T01:16:35.608Z,0
2018-10-06T01:17:16.163Z,0
2018-10-06T01:17:56.737Z,0
2018-10-06T01:18:37.297Z,0
2018-10-06T01:19:17.870Z,0
2018-10-06T01:19:58.435Z,0
2018-10-06T01:20:39.002Z,0
2018-10-06T01:21:19.570Z,0
2018-10-06T01:22:00.137Z,0
2018-10-06T01:22:40.696Z,0
2018-10-06T01:23:21.253Z,0
2018-10-06T01:24:01.817Z,0
2018-10-06T01:24:42.378Z,0
2018-10-06T01:25:22.965Z,0
2018-10-06T01:26:03.516Z,0
2018-10-06T01:26:44.073Z,0
2018-10-06T01:27:24.644Z,0
2018-10-06T01:28:05.208Z,0
2018-10-06T01:28:45.768Z,0
2018-10-06T01:29:26.338Z,0
2018-10-06T01:30:06.898Z,0
2018-10-06T01:30:47.469Z,0
2018-10-06T01:31:28.036Z,0
2018-10-06T01:32:08.593Z,0
2018-10-06T01:32:49.171Z,0
2018-10-06T01:33:29.743Z,0
2018-10-06T01:34:10.315Z,0
2018-10-06T01:34:50.888Z,0
2018-10-06T01:35:31.467Z,0
2018-10-06T01:36:12.025Z,0
2018-10-06T01:36:52.602Z,0
2018-10-06T01:37:33.165Z,0
2018-10-06T01:38:13.721Z,0
2018-10-06T01:38:54.284Z,0
2018-10-06T01:39:34.846Z,0
2018-10-06T01:40:15.412Z,0
2018-10-06T01:40:55.977Z,0
2018-10-06T01:41:36.541Z,0
2018-10-06T01:42:17.124Z,0
2018-10-06T01:42:57.685Z,0
2018-10-06T01:43:38.254Z,0
2018-10-06T01:44:18.811Z,0
2018-10-06T01:44:59.383Z,0
2018-10-06T01:45:39.936Z,0
2018-10-06T01:46:20.502Z,0
2018-10-06T01:47:01.061Z,0
2018-10-06T01:47:41.626Z,0
2018-10-06T01:48:22.242Z,0
2018-10-06T01:49:02.807Z,0
2018-10-06T01:49:43.389Z,0
2018-10-06T01:50:23.944Z,0
2018-10-06T01:51:04.575Z,0
2018-10-06T01:51:45.062Z,0
2018-10-06T01:52:25.616Z,0
2018-10-06T01:53:06.187Z,0
2018-10-06T01:53:46.751Z,0
2018-10-06T01:54:27.310Z,0
2018-10-06T01:55:07.874Z,0
2018-10-06T01:55:48.443Z,0
2018-10-06T01:56:29.002Z,0
2018-10-06T01:57:09.574Z,0
2018-10-06T01:57:50.142Z,0
2018-10-06T01:58:30.711Z,0
2018-10-06T01:59:11.274Z,0
2018-10-06T01:59:51.843Z,0
2018-10-06T02:00:32.430Z,0
2018-10-06T02:01:12.990Z,0
2018-10-06T02:01:53.565Z,0
2018-10-06T02:02:34.131Z,0
2018-10-06T02:03:14.691Z,0
2018-10-06T02:03:55.269Z,0
2018-10-06T02:04:35.850Z,0
2018-10-06T02:05:16.406Z,0
2018-10-06T02:05:56.961Z,0
2018-10-06T02:06:37.516Z,0
2018-10-06T02:07:18.073Z,0
2018-10-06T02:07:58.651Z,0
2018-10-06T02:08:39.200Z,0
2018-10-06T02:09:19.759Z,0
2018-10-06T02:10:00.310Z,0
2018-10-06T02:10:40.861Z,0
2018-10-06T02:11:21.421Z,0
2018-10-06T02:12:01.986Z,0
2018-10-06T02:12:42.544Z,0
2018-10-06T02:13:23.114Z,0
2018-10-06T02:14:03.671Z,0
2018-10-06T02:14:44.231Z,0
2018-10-06T02:15:24.782Z,0
2018-10-06T02:16:05.371Z,0
2018-10-06T02:16:45.957Z,0
2018-10-06T02:17:26.522Z,0
2018-10-06T02:18:07.099Z,0
2018-10-06T02:18:47.656Z,0
2018-10-06T02:19:28.210Z,0
2018-10-06T02:20:08.767Z,0
2018-10-06T02:20:49.328Z,0
2018-10-06T02:21:29.912Z,0
2018-10-06T02:22:10.481Z,0
2018-10-06T02:22:51.028Z,0
2018-10-06T02:23:31.626Z,0
2018-10-06T02:24:12.176Z,0
2018-10-06T02:24:52.744Z,0
2018-10-06T02:25:33.294Z,0
2018-10-06T02:26:13.866Z,0
2018-10-06T02:26:54.433Z,0
2018-10-06T02:27:35.016Z,0
2018-10-06T02:28:15.576Z,0
2018-10-06T02:28:56.156Z,0
2018-10-06T02:29:36.706Z,0
2018-10-06T02:30:17.337Z,0
2018-10-06T02:30:57.846Z,0
2018-10-06T02:31:38.433Z,0
2018-10-06T02:32:19.000Z,0
2018-10-06T02:32:59.555Z,0
2018-10-06T02:33:40.119Z,0
2018-10-06T02:34:20.686Z,0
2018-10-06T02:35:01.229Z,0
2018-10-06T02:35:41.794Z,0
2018-10-06T02:36:22.366Z,0
2018-10-06T02:37:02.924Z,0
2018-10-06T02:37:43.492Z,0
2018-10-06T02:38:24.042Z,0
2018-10-06T02:39:04.601Z,0
2018-10-06T02:39:45.164Z,0
2018-10-06T02:40:25.767Z,0
2018-10-06T02:41:06.338Z,0
2018-10-06T02:41:46.893Z,0
2018-10-06T02:42:27.453Z,0
2018-10-06T02:43:08.014Z,0
2018-10-06T02:43:48.567Z,0
2018-10-06T02:44:29.124Z,0
2018-10-06T02:45:09.674Z,0
2018-10-06T02:45:50.239Z,0
2018-10-06T02:46:30.799Z,0
2018-10-06T02:47:11.450Z,0
2018-10-06T02:47:51.942Z,0
2018-10-06T02:48:32.494Z,0
2018-10-06T02:49:13.057Z,0
2018-10-06T02:49:53.612Z,0
2018-10-06T02:50:34.185Z,0
2018-10-06T02:51:14.746Z,0
2018-10-06T02:51:55.312Z,0
2018-10-06T02:52:35.871Z,0
2018-10-06T02:53:16.432Z,0
2018-10-06T02:53:57.021Z,0
2018-10-06T02:54:37.593Z,0
2018-10-06T02:55:18.168Z,0
2018-10-06T02:55:58.733Z,0
2018-10-06T02:56:39.285Z,0
2018-10-06T02:57:19.842Z,0
2018-10-06T02:58:00.408Z,0
2018-10-06T02:58:40.968Z,0
2018-10-06T02:59:21.522Z,0
2018-10-06T03:00:02.091Z,0
2018-10-06T03:00:42.644Z,0
2018-10-06T03:01:23.192Z,0
2018-10-06T03:02:03.774Z,0
2018-10-06T03:02:44.331Z,0
2018-10-06T03:03:24.924Z,0
2018-10-06T03:04:05.518Z,0
2018-10-06T03:04:46.092Z,0
2018-10-06T03:05:26.647Z,0
2018-10-06T03:06:07.192Z,0
2018-10-06T03:06:47.747Z,0
2018-10-06T03:07:28.307Z,0
2018-10-06T03:08:08.873Z,0
2018-10-06T03:08:49.455Z,0
2018-10-06T03:09:30.040Z,0
2018-10-06T03:10:10.609Z,0
2018-10-06T03:10:51.210Z,0
2018-10-06T03:11:31.758Z,0
2018-10-06T03:12:12.318Z,0
2018-10-06T03:12:52.888Z,0
2018-10-06T03:13:33.446Z,0
2018-10-06T03:14:13.999Z,0
2018-10-06T03:14:54.556Z,0
2018-10-06T03:15:35.105Z,0
2018-10-06T03:16:15.692Z,0
2018-10-06T03:16:56.261Z,0
2018-10-06T03:17:36.824Z,0
2018-10-06T03:18:17.379Z,0
2018-10-06T03:18:57.936Z,0
2018-10-06T03:19:38.503Z,0
2018-10-06T03:20:19.075Z,0
2018-10-06T03:20:59.637Z,0
2018-10-06T03:21:40.196Z,0
2018-10-06T03:22:20.760Z,0
2018-10-06T03:23:01.317Z,0
2018-10-06T03:23:41.890Z,0
2018-10-06T03:24:22.471Z,0
2018-10-06T03:25:03.066Z,0
2018-10-06T03:25:43.609Z,0
2018-10-06T03:26:24.190Z,0
2018-10-06T03:27:04.752Z,0
2018-10-06T03:27:45.319Z,0
2018-10-06T03:28:25.929Z,0
2018-10-06T03:29:06.487Z,0
2018-10-06T03:29:47.069Z,0
2018-10-06T03:30:27.667Z,0
2018-10-06T03:31:08.213Z,0
2018-10-06T03:31:48.765Z,0
2018-10-06T03:32:29.344Z,0
2018-10-06T03:33:09.914Z,0
2018-10-06T03:33:50.483Z,0
2018-10-06T03:34:31.073Z,0
2018-10-06T03:35:11.652Z,0
2018-10-06T03:35:52.236Z,0
2018-10-06T03:36:32.799Z,0
2018-10-06T03:37:13.373Z,0
2018-10-06T03:37:53.979Z,0
2018-10-06T03:38:34.535Z,0
2018-10-06T03:39:15.097Z,0
2018-10-06T03:39:55.653Z,0
2018-10-06T03:40:36.220Z,0
2018-10-06T03:41:16.805Z,0
2018-10-06T03:41:57.369Z,0
2018-10-06T03:42:37.943Z,0
2018-10-06T03:43:18.517Z,0
2018-10-06T03:43:59.092Z,0
2018-10-06T03:44:39.633Z,0
2018-10-06T03:45:20.196Z,0
2018-10-06T03:46:00.751Z,0
2018-10-06T03:46:41.311Z,0
2018-10-06T03:47:21.888Z,0
2018-10-06T03:48:02.445Z,0
2018-10-06T03:48:43.022Z,0
2018-10-06T03:49:23.601Z,0
2018-10-06T03:50:04.146Z,0
2018-10-06T03:50:44.723Z,0
2018-10-06T03:51:25.300Z,0
2018-10-06T03:52:05.863Z,0
2018-10-06T03:52:46.430Z,0
2018-10-06T03:53:27.010Z,0
2018-10-06T03:54:07.712Z,0
2018-10-06T03:54:48.139Z,0
2018-10-06T03:55:28.711Z,0
2018-10-06T03:56:09.267Z,0
2018-10-06T03:56:49.847Z,0
2018-10-06T03:57:30.393Z,0
2018-10-06T03:58:10.959Z,0
2018-10-06T03:58:51.536Z,0
2018-10-06T03:59:32.106Z,0
2018-10-06T04:00:12.673Z,0
2018-10-06T04:00:53.238Z,0
2018-10-06T04:01:33.787Z,0
2018-10-06T04:02:14.352Z,0
2018-10-06T04:02:54.939Z,0
2018-10-06T04:03:35.496Z,0
2018-10-06T04:04:16.072Z,0
2018-10-06T04:04:56.607Z,0
2018-10-06T04:05:37.176Z,0
2018-10-06T04:06:17.729Z,0
2018-10-06T04:06:58.291Z,0
2018-10-06T04:07:38.861Z,0
2018-10-06T04:08:19.429Z,0
2018-10-06T04:08:59.998Z,0
2018-10-06T04:09:40.549Z,0
2018-10-06T04:10:21.098Z,0
2018-10-06T04:11:01.681Z,0
2018-10-06T04:11:42.256Z,0
2018-10-06T04:12:22.825Z,0
2018-10-06T04:13:03.402Z,0
2018-10-06T04:13:43.977Z,0
2018-10-06T04:14:24.540Z,0
2018-10-06T04:15:05.101Z,0
2018-10-06T04:15:45.688Z,0
2018-10-06T04:16:26.264Z,0
2018-10-06T04:17:06.807Z,0
2018-10-06T04:17:47.388Z,0
2018-10-06T04:18:27.966Z,0
2018-10-06T04:19:08.536Z,0
2018-10-06T04:19:49.114Z,0
2018-10-06T04:20:29.688Z,0
2018-10-06T04:21:10.254Z,0
2018-10-06T04:21:50.825Z,0
2018-10-06T04:22:31.402Z,0
2018-10-06T04:23:11.950Z,0
2018-10-06T04:23:52.510Z,0
2018-10-06T04:24:33.065Z,0
2018-10-06T04:25:13.621Z,0
2018-10-06T04:25:54.172Z,0
2018-10-06T04:26:34.724Z,0
2018-10-06T04:27:15.282Z,0
2018-10-06T04:27:55.868Z,0
2018-10-06T04:28:36.411Z,0
2018-10-06T04:29:17.009Z,0
2018-10-06T04:29:57.557Z,0
2018-10-06T04:30:38.115Z,0
2018-10-06T04:31:18.687Z,0
2018-10-06T04:31:59.260Z,0
2018-10-06T04:32:39.823Z,0
2018-10-06T04:33:20.379Z,0
2018-10-06T04:34:00.961Z,0
2018-10-06T04:34:41.513Z,0
2018-10-06T04:35:22.080Z,0
2018-10-06T04:36:02.645Z,0
2018-10-06T04:36:43.187Z,0
2018-10-06T04:37:23.754Z,0
2018-10-06T04:38:04.357Z,0
2018-10-06T04:38:44.906Z,0
2018-10-06T04:39:25.470Z,0
2018-10-06T04:40:06.020Z,0
2018-10-06T04:40:46.580Z,0
2018-10-06T04:41:27.163Z,0
2018-10-06T04:42:07.731Z,0
2018-10-06T04:42:48.291Z,0
2018-10-06T04:43:28.844Z,4
2018-10-06T04:44:09.423Z,4
2018-10-06T04:44:49.998Z,4
2018-10-06T04:45:30.556Z,0
2018-10-06T04:46:11.134Z,0
2018-10-06T04:46:51.722Z,4
2018-10-06T04:47:32.308Z,4
2018-10-06T04:48:12.872Z,4
2018-10-06T04:48:53.432Z,4
2018-10-06T04:49:34.001Z,8
2018-10-06T04:50:14.554Z,4
2018-10-06T04:50:55.126Z,4
2018-10-06T04:51:35.853Z,8
2018-10-06T04:52:16.429Z,8
2018-10-06T04:52:57.000Z,8
2018-10-06T04:53:37.533Z,12
2018-10-06T04:54:18.098Z,12
2018-10-06T04:54:58.692Z,16
2018-10-06T04:55:39.253Z,12
2018-10-06T04:56:19.828Z,16
2018-10-06T04:57:00.396Z,20
2018-10-06T04:57:40.946Z,20
2018-10-06T04:58:21.508Z,24
2018-10-06T04:59:02.076Z,24
2018-10-06T04:59:42.645Z,32
2018-10-06T05:00:23.210Z,32
2018-10-06T05:01:03.802Z,36
2018-10-06T05:01:44.352Z,40
2018-10-06T05:02:24.904Z,44
2018-10-06T05:03:05.464Z,48
2018-10-06T05:03:46.034Z,52
2018-10-06T05:04:26.599Z,56
2018-10-06T05:05:07.176Z,60
2018-10-06T05:05:47.728Z,68
2018-10-06T05:06:28.319Z,72
2018-10-06T05:07:08.893Z,80
2018-10-06T05:07:49.452Z,88
2018-10-06T05:08:30.016Z,92
2018-10-06T05:09:10.579Z,100
2018-10-06T05:09:51.134Z,104
2018-10-06T05:10:31.681Z,116
2018-10-06T05:11:12.277Z,120
2018-10-06T05:11:52.844Z,128
2018-10-06T05:12:33.411Z,140
2018-10-06T05:13:14.040Z,148
2018-10-06T05:13:54.613Z,160
2018-10-06T05:14:35.184Z,168
2018-10-06T05:15:15.738Z,180
2018-10-06T05:15:56.318Z,192
2018-10-06T05:16:36.885Z,204
2018-10-06T05:17:17.465Z,212
2018-10-06T05:17:58.046Z,224
2018-10-06T05:18:38.596Z,236
2018-10-06T05:19:19.147Z,252
2018-10-06T05:19:59.703Z,264
2018-10-06T05:20:40.275Z,276
2018-10-06T05:21:20.847Z,292
2018-10-06T05:22:01.393Z,308
2018-10-06T05:22:41.970Z,320
2018-10-06T05:23:22.574Z,336
2018-10-06T05:24:03.096Z,352
2018-10-06T05:24:43.671Z,372
2018-10-06T05:25:24.243Z,388
2018-10-06T05:26:04.841Z,412
2018-10-06T05:26:45.404Z,432
2018-10-06T05:27:25.992Z,448
2018-10-06T05:28:06.578Z,468
2018-10-06T05:28:47.136Z,488
2018-10-06T05:29:27.706Z,504
2018-10-06T05:30:08.263Z,524
2018-10-06T05:30:48.842Z,548
2018-10-06T05:31:29.399Z,568
2018-10-06T05:32:09.956Z,592
2018-10-06T05:32:50.528Z,616
2018-10-06T05:33:31.104Z,632
2018-10-06T05:34:11.849Z,660
2018-10-06T05:34:52.253Z,680
2018-10-06T05:35:32.820Z,704
2018-10-06T05:36:13.378Z,724
2018-10-06T05:36:53.941Z,748
2018-10-06T05:37:34.498Z,772
2018-10-06T05:38:15.104Z,800
2018-10-06T05:38:55.628Z,824
2018-10-06T05:39:36.197Z,848
2018-10-06T05:40:16.767Z,876
2018-10-06T05:40:57.328Z,904
2018-10-06T05:41:37.898Z,932
2018-10-06T05:42:18.467Z,960
2018-10-06T05:42:59.033Z,984
2018-10-06T05:43:39.587Z,1016
2018-10-06T05:44:20.156Z,1040
2018-10-06T05:45:00.717Z,1064
2018-10-06T05:45:41.300Z,1088
2018-10-06T05:46:21.918Z,1112
2018-10-06T05:47:02.436Z,1136
2018-10-06T05:47:43.006Z,1156
2018-10-06T05:48:23.557Z,1176
2018-10-06T05:49:04.114Z,1196
2018-10-06T05:49:44.679Z,1216
2018-10-06T05:50:25.258Z,1228
2018-10-06T05:51:05.949Z,1248
2018-10-06T05:51:46.512Z,1260
2018-10-06T05:52:27.086Z,1276
2018-10-06T05:53:07.657Z,1288
2018-10-06T05:53:48.196Z,1300
2018-10-06T05:54:28.787Z,1308
2018-10-06T05:55:09.365Z,1320
2018-10-06T05:55:49.973Z,1328
2018-10-06T05:56:30.535Z,1336
2018-10-06T05:57:11.416Z,1344
2018-10-06T05:57:52.359Z,1356
2018-10-06T05:58:33.103Z,1368
2018-10-06T05:59:13.866Z,1376
2018-10-06T05:59:54.676Z,1396
2018-10-06T06:00:35.232Z,1416
2018-10-06T06:01:15.796Z,1432
2018-10-06T06:01:56.359Z,1452
2018-10-06T06:02:36.923Z,1480
2018-10-06T06:03:17.487Z,1516
2018-10-06T06:03:58.130Z,1548
2018-10-06T06:04:38.781Z,1588
2018-10-06T06:05:19.442Z,1636
2018-10-06T06:06:00.127Z,1676
2018-10-06T06:06:41.520Z,1712
2018-10-06T06:07:22.719Z,1736
2018-10-06T06:08:03.457Z,1760
2018-10-06T06:08:44.016Z,1780
2018-10-06T06:09:24.589Z,1804
2018-10-06T06:10:05.146Z,1824
2018-10-06T06:10:45.717Z,1844
2018-10-06T06:11:26.409Z,1864
2018-10-06T06:12:07.079Z,1892
2018-10-06T06:12:47.968Z,1920
2018-10-06T06:13:28.665Z,1932
2018-10-06T06:14:09.225Z,1936
2018-10-06T06:14:49.768Z,1944
2018-10-06T06:15:30.392Z,1956
2018-10-06T06:16:11.120Z,1960
2018-10-06T06:16:52.736Z,1972
2018-10-06T06:17:34.467Z,1984
2018-10-06T06:18:15.229Z,1992
2018-10-06T06:18:55.946Z,2004
2018-10-06T06:19:36.700Z,2016
2018-10-06T06:20:17.325Z,2028
2018-10-06T06:20:57.885Z,2048
2018-10-06T06:21:38.446Z,2060
2018-10-06T06:22:19.163Z,2076
2018-10-06T06:23:00.030Z,2100
2018-10-06T06:23:40.631Z,2124
2018-10-06T06:24:21.163Z,2144
2018-10-06T06:25:01.899Z,2160
2018-10-06T06:25:42.828Z,2176
2018-10-06T06:26:23.583Z,2196
2018-10-06T06:27:04.346Z,2212
2018-10-06T06:27:44.979Z,2228
2018-10-06T06:28:25.655Z,2244
2018-10-06T06:29:06.381Z,2260
2018-10-06T06:29:47.163Z,2280
2018-10-06T06:30:27.728Z,2304
2018-10-06T06:31:08.336Z,2320
2018-10-06T06:31:48.875Z,2348
2018-10-06T06:32:29.662Z,2368
2018-10-06T06:33:10.338Z,2388
2018-10-06T06:33:50.895Z,2408
2018-10-06T06:34:31.475Z,2432
2018-10-06T06:35:12.014Z,2452
2018-10-06T06:35:52.589Z,2472
2018-10-06T06:36:33.383Z,2496
2018-10-06T06:37:13.957Z,2512
2018-10-06T06:37:54.628Z,2540
2018-10-06T06:38:35.452Z,2564
2018-10-06T06:39:16.417Z,2588
2018-10-06T06:39:57.302Z,2600
2018-10-06T06:40:37.894Z,2624
2018-10-06T06:41:18.680Z,2644
2018-10-06T06:41:59.262Z,2656
2018-10-06T06:42:39.840Z,2660
2018-10-06T06:44:52.617Z,2776
2018-10-06T06:45:33.198Z,2808
2018-10-06T06:46:14.076Z,2828
2018-10-06T06:46:54.638Z,2852
2018-10-06T06:47:35.201Z,2872
2018-10-06T06:48:15.771Z,2884
2018-10-06T06:48:56.487Z,2916
2018-10-06T06:49:37.205Z,2932
2018-10-06T06:50:17.770Z,2936
2018-10-06T06:50:58.339Z,2952
2018-10-06T06:51:38.898Z,2996
2018-10-06T06:52:19.561Z,3004
2018-10-06T06:53:00.125Z,3028
2018-10-06T06:53:40.681Z,3040
2018-10-06T06:54:21.325Z,3040
2018-10-06T06:55:02.030Z,3064
2018-10-06T06:55:42.491Z,3088
2018-10-06T06:56:23.056Z,3132
2018-10-06T06:57:03.613Z,3176
2018-10-06T06:57:44.180Z,3200
2018-10-06T06:58:24.756Z,3228
2018-10-06T06:59:05.320Z,3260
2018-10-06T06:59:45.873Z,3276
2018-10-06T07:00:26.440Z,3308
2018-10-06T07:01:07.020Z,3348
2018-10-06T07:01:47.583Z,3352
2018-10-06T07:02:28.158Z,3240
2018-10-06T07:03:08.705Z,3268
2018-10-06T07:03:49.268Z,3212
2018-10-06T07:04:29.810Z,3288
2018-10-06T07:05:10.356Z,3472
2018-10-06T07:05:50.999Z,3456
2018-10-06T07:06:31.457Z,3560
2018-10-06T07:07:12.017Z,3596
2018-10-06T07:07:52.577Z,3644
2018-10-06T07:08:33.128Z,3704
2018-10-06T07:09:13.678Z,3776
2018-10-06T07:09:54.231Z,3864
2018-10-06T07:10:34.794Z,3964
2018-10-06T07:11:15.362Z,4056
2018-10-06T07:11:55.934Z,4168
2018-10-06T07:12:36.525Z,5108
2018-10-06T07:13:17.051Z,12332
2018-10-06T07:13:57.607Z,19648
2018-10-06T07:14:38.187Z,26624
2018-10-06T07:15:18.744Z,21312
2018-10-06T07:15:59.313Z,15680
2018-10-06T07:16:39.883Z,13212
2018-10-06T07:17:20.455Z,17152
2018-10-06T07:18:01.008Z,39456
2018-10-06T07:18:41.566Z,22176
2018-10-06T07:19:22.147Z,40704
2018-10-06T07:20:02.699Z,57728
2018-10-06T07:20:43.248Z,76448
2018-10-06T07:21:23.795Z,80416
2018-10-06T07:22:04.352Z,77056
2018-10-06T07:22:44.911Z,71808
2018-10-06T07:23:25.482Z,67680
2018-10-06T07:24:06.024Z,64192
2018-10-06T07:24:46.578Z,77984
2018-10-06T07:25:28.138Z,78144
2018-10-06T07:26:08.305Z,83648
2018-10-06T07:26:48.998Z,80480
2018-10-06T07:27:29.644Z,71872
2018-10-06T07:28:10.203Z,75008
2018-10-06T07:28:50.788Z,72256
2018-10-06T07:29:31.359Z,78688
2018-10-06T07:30:11.979Z,80192
2018-10-06T07:30:52.554Z,78880
2018-10-06T07:31:33.134Z,76384
2018-10-06T07:32:13.701Z,72000
2018-10-06T07:32:54.260Z,80448
2018-10-06T07:33:34.836Z,84000
2018-10-06T07:34:15.402Z,83488
2018-10-06T07:34:56.615Z,85920
2018-10-06T07:35:38.466Z,85888
2018-10-06T07:36:19.506Z,83168
2018-10-06T07:37:00.238Z,83808
2018-10-06T07:37:41.115Z,82688
2018-10-06T07:38:22.086Z,81440
2018-10-06T07:39:02.954Z,79808
2018-10-06T07:39:43.527Z,76512
2018-10-06T07:40:24.098Z,65856
2018-10-06T07:41:05.083Z,79616
2018-10-06T07:41:45.759Z,79840
2018-10-06T07:42:26.683Z,82528
2018-10-06T07:43:07.781Z,70336
2018-10-06T07:43:48.492Z,79584
2018-10-06T07:44:29.876Z,70720
2018-10-06T07:45:10.611Z,70112
2018-10-06T07:45:51.262Z,78112
2018-10-06T07:46:31.842Z,71200
2018-10-06T07:47:12.415Z,67104
2018-10-06T07:47:52.979Z,76096
2018-10-06T07:48:33.570Z,78848
2018-10-06T07:49:14.160Z,81120
2018-10-06T07:49:54.721Z,79104
2018-10-06T07:50:35.337Z,82304
2018-10-06T07:51:16.074Z,80896
2018-10-06T07:51:56.781Z,83040
2018-10-06T07:52:37.349Z,85600
2018-10-06T07:53:17.930Z,82048
2018-10-06T07:53:58.481Z,56032
2018-10-06T07:54:39.063Z,62080
2018-10-06T07:55:19.665Z,51744
2018-10-06T07:56:00.274Z,47424
2018-10-06T07:56:40.884Z,53664
2018-10-06T07:57:21.431Z,58016
2018-10-06T07:58:02.028Z,63008
2018-10-06T07:58:42.564Z,68704
2018-10-06T07:59:23.193Z,77344
2018-10-06T08:00:03.709Z,75872
2018-10-06T08:00:44.296Z,71456
2018-10-06T08:01:24.883Z,67552
2018-10-06T08:02:05.417Z,66272
2018-10-06T08:02:45.991Z,55072
2018-10-06T08:03:26.570Z,71968
2018-10-06T08:04:07.138Z,67936
2018-10-06T08:04:47.700Z,56928
2018-10-06T08:05:28.277Z,65664
2018-10-06T08:06:08.867Z,68576
2018-10-06T08:06:49.487Z,71808
2018-10-06T08:07:30.025Z,68640
2018-10-06T08:08:10.592Z,67232
2018-10-06T08:08:51.170Z,69312
2018-10-06T08:09:31.767Z,75808
2018-10-06T08:10:12.354Z,75424
2018-10-06T08:10:52.991Z,67584
2018-10-06T08:11:33.553Z,53088
2018-10-06T08:12:14.123Z,51040
2018-10-06T08:12:54.691Z,62496
2018-10-06T08:13:35.274Z,67584
2018-10-06T08:14:15.832Z,63936
2018-10-06T08:14:56.409Z,58592
2018-10-06T08:15:36.979Z,52992
2018-10-06T08:16:18.064Z,50624
2018-10-06T08:16:58.652Z,49024
2018-10-06T08:17:40.831Z,47040
2018-10-06T08:18:20.937Z,44704
2018-10-06T08:19:01.520Z,41632
2018-10-06T08:19:42.221Z,37824
2018-10-06T08:20:22.761Z,33536
2018-10-06T08:21:03.319Z,33472
2018-10-06T08:21:43.902Z,33088
2018-10-06T08:22:24.464Z,30304
2018-10-06T08:23:05.056Z,31200
2018-10-06T08:23:45.625Z,31648
2018-10-06T08:24:26.197Z,29408
2018-10-06T08:25:06.765Z,25568
2018-10-06T08:25:47.328Z,20960
2018-10-06T08:26:27.891Z,19968
2018-10-06T08:27:08.484Z,18176
2018-10-06T08:27:49.071Z,18816
2018-10-06T08:28:29.658Z,17536
2018-10-06T08:29:10.200Z,16320
2018-10-06T08:29:50.777Z,14796
2018-10-06T08:30:31.340Z,15968
2018-10-06T08:31:11.904Z,12856
2018-10-06T08:31:52.464Z,14304
2018-10-06T08:32:33.044Z,12396
2018-10-06T08:33:13.606Z,12692
2018-10-06T08:33:54.174Z,11924
2018-10-06T08:34:34.734Z,12020
2018-10-06T08:35:15.297Z,12244
2018-10-06T08:35:55.861Z,12580
2018-10-06T08:36:36.447Z,12484
2018-10-06T08:37:17.012Z,10936
2018-10-06T08:37:57.577Z,10012
2018-10-06T08:38:38.143Z,10892
2018-10-06T08:39:18.723Z,10696
2018-10-06T08:39:59.316Z,10400
2018-10-06T08:40:39.875Z,10404
2018-10-06T08:41:20.433Z,10460
2018-10-06T08:42:01.031Z,10232
2018-10-06T08:42:41.685Z,9864
2018-10-06T08:43:22.185Z,9716
2018-10-06T08:44:02.747Z,9620
2018-10-06T08:44:43.329Z,9252
2018-10-06T08:45:23.901Z,9024
2018-10-06T08:46:04.464Z,8704
2018-10-06T08:46:45.053Z,8568
2018-10-06T08:47:25.637Z,8348
2018-10-06T08:48:06.229Z,8140
2018-10-06T08:48:46.861Z,7616
2018-10-06T08:49:27.433Z,7232
2018-10-06T08:50:08.025Z,7332
2018-10-06T08:50:48.588Z,7080
2018-10-06T08:51:29.202Z,7036
2018-10-06T08:52:10.159Z,6732
2018-10-06T08:52:51.114Z,6516
2018-10-06T08:53:32.203Z,6616
2018-10-06T08:54:13.153Z,6572
2018-10-06T08:54:53.951Z,6480
2018-10-06T08:55:34.883Z,6376
2018-10-06T08:56:15.966Z,6352
2018-10-06T08:56:56.805Z,6144
2018-10-06T08:57:37.375Z,5944
2018-10-06T08:58:17.975Z,5972
2018-10-06T08:58:58.556Z,6036
2018-10-06T08:59:39.183Z,6036
2018-10-06T09:00:19.770Z,5852
2018-10-06T09:01:00.423Z,5568
2018-10-06T09:01:40.949Z,5224
2018-10-06T09:02:21.506Z,4984
2018-10-06T09:03:02.133Z,5132
2018-10-06T09:03:42.753Z,5272
2018-10-06T09:04:23.383Z,5452
2018-10-06T09:05:04.000Z,5292
2018-10-06T09:05:44.592Z,5348
2018-10-06T09:06:25.186Z,5200
2018-10-06T09:07:05.881Z,5248
2018-10-06T09:07:46.411Z,5340
2018-10-06T09:08:26.981Z,5104
2018-10-06T09:09:07.549Z,5152
2018-10-06T09:09:48.168Z,5304
2018-10-06T09:10:28.809Z,5288
2018-10-06T09:11:09.488Z,5084
2018-10-06T09:11:50.069Z,4976
2018-10-06T09:12:30.675Z,4848
2018-10-06T09:13:11.258Z,4592
2018-10-06T09:13:51.828Z,4620
2018-10-06T09:14:32.426Z,4600
2018-10-06T09:15:13.010Z,4784
2018-10-06T09:15:53.635Z,4848
2018-10-06T09:16:34.441Z,4892
2018-10-06T09:17:15.026Z,4940
2018-10-06T09:17:55.843Z,4968
2018-10-06T09:18:36.307Z,4920
2018-10-06T09:19:17.049Z,4928
2018-10-06T09:19:57.550Z,4864
2018-10-06T09:20:38.191Z,4848
2018-10-06T09:21:18.754Z,4728
2018-10-06T09:21:59.428Z,4668
2018-10-06T09:22:40.359Z,4536
2018-10-06T09:23:20.989Z,4500
2018-10-06T09:24:01.559Z,4452
2018-10-06T09:24:42.132Z,4380
2018-10-06T09:25:22.703Z,4304
2018-10-06T09:26:03.294Z,4268
2018-10-06T09:26:43.874Z,4240
2018-10-06T09:27:24.450Z,4192
2018-10-06T09:28:05.065Z,4156
2018-10-06T09:28:45.627Z,4088
2018-10-06T09:29:26.273Z,4024
2018-10-06T09:30:07.069Z,3980